Kellys Korner, Washington
Current Conditions -  °F | °C
As of 10:54 AM on Thursday 18 Dec 2014 (Local Time) from KOLM Reporting Station
Light Rain Light Rain  
Wind Chill:   Ceiling: 4900
Heat Index:   Visibility: 3mi
Dew Point:   Wind: 5mph
Humidity: 97%   Direction: 100°E
Pressure: 29.89"   Gusts: NA
Location:  46.9679°N, 122.834°W
Report Text: KOLM 181854Z 10004KT 3SM -RA BR FEW042 BKN049 OVC070 07/07 A2989 RMK AO2 SLP124 P0004 T00720067
Loading
Personal Weather Stations






























Interactive Weather Map New forecast layout! Learn more

10-Day Weather Forecast

Advertisements
Track Severe Weather on mobile